Terminal Aerodrome Forecast
Issued by NWS Sioux Falls, SD

Home | Current Version | Previous Version | Text Only | Print | Product List | Glossary On
Versions: 1 2 3 4 5 6 7 8 9 10 11 12 13 14 15 16 17 18 19 20 21 22 23 24 25 26 27 28 29 30 31 32 33 34 35 36 37 38 39
000
FTUS43 KFSD 300540
TAFSUX
TAF
KSUX 300540Z 3006/3106 VRB04KT P6SM SCT035 SCT080
     FM301000 VRB04KT 4SM BR SCT250
      TEMPO 3010/3014 1 1/2SM BR SCT003
     FM301400 33005KT 2SM BR SKC
     FM301500 32005KT P6SM SKC
     FM301900 VRB04KT P6SM SCT035
     FM310000 13007KT P6SM SCT120=

USA.gov is the U.S. government's official web portal to all federal, state and local government web resources and services.